Time;durP1;ratioP1;P1;durP2;ratioP2;P2;SDS_P1;SDS_P2;PMS_P1;PMS_P2;Temp;Humidity;BMP_temperature;BMP_pressure;BME280_temperature;BME280_humidity;BME280_pressure;Samples;Min_cycle;Max_cycle;Signal;HPM_P1;HPM_P2
2022/09/18 00:02:12;;;;;;;1.38;0.40;;;;;;;-145.06;100.00;60892.56;5882729;23;20010;-90
2022/09/18 00:04:51;;;;;;;0.85;0.52;;;;;;;-145.06;100.00;60892.56;5883147;23;20006;-92
2022/09/18 00:07:31;;;;;;;0.75;0.52;;;;;;;-145.06;100.00;60892.56;5882567;23;20081;-91
2022/09/18 00:10:09;;;;;;;0.77;0.53;;;;;;;-145.06;100.00;60892.56;5883459;23;20034;-92
2022/09/18 00:12:48;;;;;;;0.82;0.43;;;;;;;-145.06;100.00;60892.56;5882539;23;20010;-90
2022/09/18 00:15:27;;;;;;;0.63;0.40;;;;;;;-145.06;100.00;60892.56;5882648;23;20011;-93
2022/09/18 00:18:07;;;;;;;0.88;0.47;;;;;;;-145.06;100.00;60892.56;5883035;23;20007;-92
2022/09/18 00:20:46;;;;;;;1.05;0.50;;;;;;;-145.06;100.00;60892.56;5882655;23;20390;-92
2022/09/18 00:23:30;;;;;;;2.27;0.50;;;;;;;-145.06;100.00;60892.56;5883511;23;20010;-91
2022/09/18 00:26:10;;;;;;;1.85;0.60;;;;;;;-145.06;100.00;60892.56;5883235;23;20235;-91
2022/09/18 00:28:51;;;;;;;2.05;0.40;;;;;;;-145.06;100.00;60892.56;5883130;23;20002;-91
2022/09/18 00:31:36;;;;;;;1.55;0.60;;;;;;;-145.06;100.00;60892.56;5883369;23;20069;-92
2022/09/18 00:34:15;;;;;;;0.50;0.30;;;;;;;-145.06;100.00;60892.56;5882970;23;20034;-91
2022/09/18 00:36:57;;;;;;;0.93;0.50;;;;;;;-145.06;100.00;60892.56;5882537;23;20002;-92
2022/09/18 00:39:37;;;;;;;0.55;0.40;;;;;;;-145.06;100.00;60892.56;5883210;23;20010;-92
2022/09/18 00:42:20;;;;;;;0.90;0.50;;;;;;;-145.06;100.00;60892.56;5882922;23;20006;-92
2022/09/18 00:44:59;;;;;;;1.13;0.50;;;;;;;-145.06;100.00;60892.56;5884484;23;20010;-92
2022/09/18 00:47:47;;;;;;;0.40;0.40;;;;;;;-145.06;100.00;60892.56;5884649;23;20077;-92
2022/09/18 00:50:29;;;;;;;0.88;0.40;;;;;;;-145.06;100.00;60892.56;5884257;23;20010;-94
2022/09/18 00:53:11;;;;;;;0.95;0.43;;;;;;;-145.06;100.00;60892.56;5884305;23;20033;-91
2022/09/18 00:55:50;;;;;;;0.20;0.20;;;;;;;-145.06;100.00;60892.56;5884772;23;20434;-92
2022/09/18 00:58:30;;;;;;;1.35;0.40;;;;;;;-145.06;100.00;60892.56;5883981;23;20011;-92
2022/09/18 01:01:11;;;;;;;0.65;0.40;;;;;;;-145.06;100.00;60892.56;5884515;23;20085;-91
2022/09/18 01:03:56;;;;;;;1.63;0.50;;;;;;;-145.06;100.00;60892.56;5884505;23;20038;-91
2022/09/18 01:07:04;;;;;;;0.38;0.30;;;;;;;-145.06;100.00;60892.56;5884873;23;20041;-91
2022/09/18 01:09:52;;;;;;;0.35;0.30;;;;;;;-145.06;100.00;60892.56;5883773;23;20010;-90
2022/09/18 01:12:57;;;;;;;0.70;0.35;;;;;;;-145.06;100.00;60892.56;5884333;23;20007;-93
2022/09/18 01:15:40;;;;;;;0.82;0.38;;;;;;;-145.06;100.00;60892.56;5883816;23;20003;-91
2022/09/18 01:18:31;;;;;;;0.65;0.50;;;;;;;-145.06;100.00;60892.56;5883734;23;20030;-90
2022/09/18 01:21:34;;;;;;;0.52;0.38;;;;;;;-145.06;100.00;60892.56;5883969;23;20006;-91
2022/09/18 01:24:39;;;;;;;2.92;0.45;;;;;;;-145.06;100.00;60892.56;5883555;23;20006;-91
2022/09/18 01:27:59;;;;;;;0.47;0.20;;;;;;;-145.06;100.00;60892.56;5884266;23;20265;-91
2022/09/18 01:30:42;;;;;;;0.30;0.30;;;;;;;-145.06;100.00;60892.56;5884206;23;20327;-91
2022/09/18 01:33:57;;;;;;;0.40;0.30;;;;;;;-145.06;100.00;60892.56;5884075;23;20006;-91
2022/09/18 01:37:05;;;;;;;1.35;0.47;;;;;;;-145.06;100.00;60892.56;5884583;23;20089;-92
2022/09/18 01:40:37;;;;;;;0.95;0.30;;;;;;;-145.06;100.00;60892.56;5884619;23;20082;-91
2022/09/18 01:43:32;;;;;;;0.43;0.30;;;;;;;-145.06;100.00;60892.56;5886812;23;20003;-92
2022/09/18 01:46:19;;;;;;;1.02;0.30;;;;;;;-145.06;100.00;60892.56;5884601;23;20002;-91
2022/09/18 01:49:08;;;;;;;0.30;0.20;;;;;;;-145.06;100.00;60892.56;5884075;23;20011;-92
2022/09/18 01:52:17;;;;;;;;;;;;;;;;;;;;;
2022/09/18 01:55:11;;;;;;;0.93;0.30;;;;;;;-145.06;100.00;60892.56;5893979;23;20006;-93
2022/09/18 01:58:12;;;;;;;0.63;0.38;;;;;;;-145.06;100.00;60892.56;5884020;23;20014;-91
2022/09/18 02:01:04;;;;;;;0.98;0.40;;;;;;;-145.06;100.00;60892.56;5883882;23;20248;-92
2022/09/18 02:04:01;;;;;;;1.08;0.35;;;;;;;-145.06;100.00;60892.56;5883969;23;20034;-91
2022/09/18 02:07:25;;;;;;;0.90;0.47;;;;;;;-145.06;100.00;60892.56;5883859;23;20003;-91
2022/09/18 02:10:05;;;;;;;0.40;0.40;;;;;;;-145.06;100.00;60892.56;5883507;23;20445;-92
2022/09/18 02:12:59;;;;;;;0.57;0.38;;;;;;;-145.06;100.00;60892.56;5883462;23;20006;-91
2022/09/18 02:15:50;;;;;;;0.30;0.30;;;;;;;-145.06;100.00;60892.56;5883095;23;20041;-92
2022/09/18 02:18:42;;;;;;;0.65;0.30;;;;;;;-145.06;100.00;60892.56;5883677;23;20042;-91
2022/09/18 02:21:27;;;;;;;1.33;0.35;;;;;;;-145.06;100.00;60892.56;5884294;23;20441;-90
2022/09/18 02:24:10;;;;;;;0.30;0.20;;;;;;;-145.06;100.00;60892.56;5883311;23;20011;-93
2022/09/18 02:26:52;;;;;;;0.85;0.38;;;;;;;-145.06;100.00;60892.56;5883818;23;20064;-92
2022/09/18 02:29:33;;;;;;;0.20;0.20;;;;;;;-145.06;100.00;60892.56;5885032;23;20437;-91
2022/09/18 02:32:12;;;;;;;0.68;0.30;;;;;;;-145.06;100.00;60892.56;5882893;23;20010;-90
2022/09/18 02:34:52;;;;;;;;;;;;;;;-145.06;100.00;60892.56;5883644;23;20003;-91
2022/09/18 02:37:48;;;;;;;0.40;0.40;;;;;;;-145.06;100.00;60892.56;5883217;23;20225;-92
2022/09/18 02:40:54;;;;;;;1.25;0.40;;;;;;;-145.06;100.00;60892.56;5883469;23;20074;-92
2022/09/18 02:43:47;;;;;;;0.68;0.47;;;;;;;-145.06;100.00;60892.56;5880246;23;20006;-92
2022/09/18 02:46:35;;;;;;;0.75;0.40;;;;;;;-145.06;100.00;60892.56;5882738;23;20417;-90
2022/09/18 02:49:41;;;;;;;1.10;0.43;;;;;;;-145.06;100.00;60892.56;5883099;23;20524;-91
2022/09/18 02:52:28;;;;;;;1.15;0.40;;;;;;;-145.06;100.00;60892.56;5883213;23;20010;-91
2022/09/18 02:55:13;;;;;;;0.77;0.25;;;;;;;-145.06;100.00;60892.56;5882618;23;20010;-91
2022/09/18 02:57:58;;;;;;;0.43;0.35;;;;;;;-145.06;100.00;60892.56;5893869;23;20006;-91
2022/09/18 03:00:40;;;;;;;0.38;0.30;;;;;;;-145.06;100.00;60892.56;5882891;23;20025;-90
2022/09/18 03:03:25;;;;;;;0.30;0.30;;;;;;;-145.06;100.00;60892.56;5884443;23;20010;-91
2022/09/18 03:06:08;;;;;;;0.20;0.20;;;;;;;-145.06;100.00;60892.56;5883230;23;20453;-90
2022/09/18 03:08:49;;;;;;;0.55;0.22;;;;;;;-145.06;100.00;60892.56;5882835;23;20010;-91
2022/09/18 03:11:31;;;;;;;1.42;0.40;;;;;;;-145.06;100.00;60892.56;5883012;23;20442;-90
2022/09/18 03:14:11;;;;;;;0.47;0.30;;;;;;;-145.06;100.00;60892.56;5893444;23;20085;-93
2022/09/18 03:16:50;;;;;;;0.70;0.30;;;;;;;-145.06;100.00;60892.56;5883079;23;20422;-92
2022/09/18 03:19:29;;;;;;;0.50;0.40;;;;;;;-145.06;100.00;60892.56;5883449;23;20120;-91
2022/09/18 03:22:08;;;;;;;0.60;0.40;;;;;;;-145.06;100.00;60892.56;5883054;23;20238;-90
2022/09/18 03:24:50;;;;;;;1.83;0.30;;;;;;;-145.06;100.00;60892.56;5892387;23;20026;-92
2022/09/18 03:27:30;;;;;;;0.40;0.40;;;;;;;-145.06;100.00;60892.56;5882858;23;20006;-90
2022/09/18 03:30:09;;;;;;;0.52;0.30;;;;;;;-145.06;100.00;60892.56;5882818;23;20011;-91
2022/09/18 03:32:49;;;;;;;0.47;0.32;;;;;;;-145.06;100.00;60892.56;5882899;23;20006;-92
2022/09/18 03:35:28;;;;;;;0.60;0.50;;;;;;;-145.06;100.00;60892.56;5882133;23;20006;-91
2022/09/18 03:38:07;;;;;;;0.63;0.30;;;;;;;-145.06;100.00;60892.56;5882474;23;20011;-90
2022/09/18 03:40:46;;;;;;;0.50;0.30;;;;;;;-145.06;100.00;60892.56;5882612;23;20010;-91
2022/09/18 03:43:28;;;;;;;1.23;0.47;;;;;;;-145.06;100.00;60892.56;5883059;23;20010;-90
2022/09/18 03:46:07;;;;;;;0.35;0.30;;;;;;;-145.06;100.00;60892.56;5882047;23;20006;-91
2022/09/18 03:48:46;;;;;;;1.07;0.33;;;;;;;-145.06;100.00;60892.56;5882741;23;20006;-91
2022/09/18 03:51:25;;;;;;;0.88;0.30;;;;;;;-145.06;100.00;60892.56;5882526;23;20045;-91
2022/09/18 03:54:05;;;;;;;0.30;0.20;;;;;;;-145.06;100.00;60892.56;5882582;23;20018;-92
2022/09/18 03:56:44;;;;;;;0.77;0.30;;;;;;;-145.06;100.00;60892.56;5882127;23;20007;-91
2022/09/18 03:59:23;;;;;;;0.90;0.20;;;;;;;-145.06;100.00;60892.56;5882432;23;20461;-93
2022/09/18 04:02:02;;;;;;;0.63;0.43;;;;;;;-145.06;100.00;60892.56;5882231;23;20011;-91
2022/09/18 04:04:41;;;;;;;1.40;0.30;;;;;;;-145.06;100.00;60892.56;5882615;23;20006;-92
2022/09/18 04:07:20;;;;;;;1.85;0.30;;;;;;;-145.06;100.00;60892.56;5882013;23;20002;-92
2022/09/18 04:09:59;;;;;;;1.65;0.50;;;;;;;-145.06;100.00;60892.56;5882519;23;20007;-91
2022/09/18 04:12:38;;;;;;;0.65;0.40;;;;;;;-145.06;100.00;60892.56;5882991;23;20014;-92
2022/09/18 04:15:18;;;;;;;0.57;0.30;;;;;;;-145.06;100.00;60892.56;5882097;23;20303;-92
2022/09/18 04:17:57;;;;;;;0.68;0.30;;;;;;;-145.06;100.00;60892.56;5883031;23;20318;-91
2022/09/18 04:20:38;;;;;;;0.67;0.60;;;;;;;-145.06;100.00;60892.56;5884284;23;20010;-91
2022/09/18 04:23:19;;;;;;;0.85;0.40;;;;;;;-145.06;100.00;60892.56;5884380;23;20010;-91
2022/09/18 04:25:58;;;;;;;1.58;0.30;;;;;;;-145.06;100.00;60892.56;5884329;23;20002;-91
2022/09/18 04:28:37;;;;;;;1.70;0.47;;;;;;;-145.06;100.00;60892.56;5883962;23;20006;-91
2022/09/18 04:32:01;;;;;;;0.52;0.35;;;;;;;-145.06;100.00;60892.56;5884097;23;20006;-92
2022/09/18 04:34:42;;;;;;;1.05;0.40;;;;;;;-145.06;100.00;60892.56;5860430;23;20058;-92
2022/09/18 04:37:33;;;;;;;2.40;0.57;;;;;;;-145.06;100.00;60892.56;5884218;23;20034;-90
2022/09/18 04:40:26;;;;;;;1.05;0.47;;;;;;;-145.06;100.00;60892.56;5884450;23;20033;-91
2022/09/18 04:43:10;;;;;;;2.25;0.50;;;;;;;-145.06;100.00;60892.56;5884376;23;20006;-92
2022/09/18 04:45:52;;;;;;;1.27;0.50;;;;;;;-145.06;100.00;60892.56;5884344;23;20002;-92
2022/09/18 04:48:31;;;;;;;2.03;0.60;;;;;;;-145.06;100.00;60892.56;5884626;23;20006;-91
2022/09/18 04:51:19;;;;;;;0.77;0.50;;;;;;;-145.06;100.00;60892.56;5883549;23;20014;-91
2022/09/18 04:54:04;;;;;;;1.05;0.50;;;;;;;-145.06;100.00;60892.56;5884441;23;20006;-92
2022/09/18 04:56:48;;;;;;;0.50;0.50;;;;;;;-145.06;100.00;60892.56;5884075;23;20007;-92
2022/09/18 04:59:33;;;;;;;2.08;0.80;;;;;;;-145.06;100.00;60892.56;5884270;23;20006;-92
2022/09/18 05:02:32;;;;;;;1.80;0.90;;;;;;;-145.06;100.00;60892.56;5883984;23;20010;-91
2022/09/18 05:05:18;;;;;;;1.55;0.60;;;;;;;-145.06;100.00;60892.56;5884004;23;20006;-90
2022/09/18 05:08:07;;;;;;;1.00;0.60;;;;;;;-145.06;100.00;60892.56;5883766;23;20038;-91
2022/09/18 05:10:49;;;;;;;1.48;0.60;;;;;;;-145.06;100.00;60892.56;5884234;23;20323;-91
2022/09/18 05:13:28;;;;;;;2.72;1.00;;;;;;;-145.06;100.00;60892.56;5883980;23;20011;-92
2022/09/18 05:16:07;;;;;;;1.38;0.80;;;;;;;-145.06;100.00;60892.56;5883403;23;20006;-92
2022/09/18 05:18:46;;;;;;;1.90;0.60;;;;;;;-145.06;100.00;60892.56;5883537;23;20006;-93
2022/09/18 05:21:28;;;;;;;0.87;0.60;;;;;;;-145.06;100.00;60892.56;5884095;23;20085;-92
2022/09/18 05:24:12;;;;;;;0.57;0.50;;;;;;;-145.06;100.00;60892.56;5884031;23;20433;-91
2022/09/18 05:26:51;;;;;;;2.47;0.50;;;;;;;-145.06;100.00;60892.56;5883566;23;20053;-92
2022/09/18 05:29:33;;;;;;;0.65;0.50;;;;;;;-145.06;100.00;60892.56;5883594;23;20006;-92
2022/09/18 05:32:12;;;;;;;1.13;0.52;;;;;;;-145.06;100.00;60892.56;5894373;23;20010;-93
2022/09/18 05:34:51;;;;;;;1.38;0.50;;;;;;;-145.06;100.00;60892.56;5884103;23;20006;-91
2022/09/18 05:37:34;;;;;;;0.88;0.57;;;;;;;-145.06;100.00;60892.56;5883426;23;20006;-92
2022/09/18 05:40:13;;;;;;;1.25;0.65;;;;;;;-145.06;100.00;60892.56;5883762;23;20010;-91
2022/09/18 05:42:52;;;;;;;0.80;0.50;;;;;;;-145.06;100.00;60892.56;5884018;23;20500;-93
2022/09/18 05:45:31;;;;;;;0.73;0.35;;;;;;;-145.06;100.00;60892.56;5883551;23;20002;-92
2022/09/18 05:48:13;;;;;;;1.77;0.73;;;;;;;-145.06;100.00;60892.56;5883343;23;20422;-93
2022/09/18 05:50:52;;;;;;;2.10;0.60;;;;;;;-145.06;100.00;60892.56;5883517;23;20018;-93
2022/09/18 05:53:31;;;;;;;1.13;0.60;;;;;;;-145.06;100.00;60892.56;5883167;23;20010;-93
2022/09/18 05:56:11;;;;;;;0.65;0.50;;;;;;;-145.06;100.00;60892.56;5883275;23;20449;-93
2022/09/18 05:58:50;;;;;;;1.38;0.65;;;;;;;-145.06;100.00;60892.56;5883212;23;20323;-93
2022/09/18 06:01:30;;;;;;;1.05;0.65;;;;;;;-145.06;100.00;60892.56;5884072;23;20085;-93
2022/09/18 06:04:12;;;;;;;1.08;0.65;;;;;;;-145.06;100.00;60892.56;5883719;23;20006;-92
2022/09/18 06:06:51;;;;;;;1.77;0.82;;;;;;;-145.06;100.00;60892.56;5883009;23;20003;-92
2022/09/18 06:09:35;;;;;;;0.80;0.50;;;;;;;-145.06;100.00;60892.56;5883706;23;20006;-92
2022/09/18 06:12:19;;;;;;;2.67;0.77;;;;;;;-145.06;100.00;60892.56;5883181;23;20038;-95
2022/09/18 06:15:22;;;;;;;;;;;;;;;;;;;;;
2022/09/18 06:18:15;;;;;;;2.67;0.73;;;;;;;-145.06;100.00;60892.56;5893920;23;20010;-92
2022/09/18 06:24:53;;;;;;;;;;;;;;;;;;;;;
2022/09/18 06:28:46;;;;;;;1.88;0.88;;;;;;;-145.06;100.00;60892.56;5896485;23;20002;-91
2022/09/18 06:35:14;;;;;;;0.95;0.60;;;;;;;-145.06;100.00;60892.56;5900161;23;20006;-93
2022/09/18 06:38:32;;;;;;;2.63;0.68;;;;;;;-145.06;100.00;60892.56;5884953;23;20034;-91
2022/09/18 06:45:09;;;;;;;2.00;0.55;;;;;;;-145.06;100.00;60892.56;5814267;23;20011;-93
2022/09/18 06:48:19;;;;;;;0.65;0.60;;;;;;;-145.06;100.00;60892.56;5807323;23;20030;-93
2022/09/18 06:51:01;;;;;;;0.50;0.47;;;;;;;-145.06;100.00;60892.56;5807171;23;20047;-92
2022/09/18 06:53:40;;;;;;;0.82;0.50;;;;;;;-145.06;100.00;60892.56;5879164;23;20006;-92
2022/09/18 06:56:19;;;;;;;0.93;0.65;;;;;;;-145.06;100.00;60892.56;5881688;23;20007;-91
2022/09/18 06:58:58;;;;;;;0.88;0.52;;;;;;;-145.06;100.00;60892.56;5881729;23;20006;-91
2022/09/18 07:01:39;;;;;;;0.50;0.50;;;;;;;-145.06;100.00;60892.56;5882346;23;20085;-90
2022/09/18 07:04:18;;;;;;;0.63;0.50;;;;;;;-145.06;100.00;60892.56;5882082;23;20433;-91
2022/09/18 07:06:57;;;;;;;0.60;0.40;;;;;;;-145.06;100.00;60892.56;5882432;23;20347;-92
2022/09/18 07:09:39;;;;;;;1.00;0.60;;;;;;;-145.06;100.00;60892.56;5882586;23;20028;-91
2022/09/18 07:12:18;;;;;;;0.70;0.50;;;;;;;-145.06;100.00;60892.56;5882144;23;20011;-91
2022/09/18 07:14:57;;;;;;;1.33;0.70;;;;;;;-145.06;100.00;60892.56;5882455;23;20251;-91
2022/09/18 07:17:36;;;;;;;0.60;0.43;;;;;;;-145.06;100.00;60892.56;5881989;23;20007;-91
2022/09/18 07:20:15;;;;;;;0.40;0.40;;;;;;;-145.06;100.00;60892.56;5882582;23;20006;-91
2022/09/18 07:22:59;;;;;;;1.90;0.70;;;;;;;-145.06;100.00;60892.56;5884626;23;20085;-92
2022/09/18 07:25:39;;;;;;;1.30;0.63;;;;;;;-145.06;100.00;60892.56;5881442;23;20006;-91
2022/09/18 07:28:18;;;;;;;1.00;0.60;;;;;;;-145.06;100.00;60892.56;5882523;23;20254;-92
2022/09/18 07:31:02;;;;;;;0.93;0.57;;;;;;;-145.06;100.00;60892.56;5882477;23;20025;-92
2022/09/18 07:33:41;;;;;;;1.45;0.50;;;;;;;-145.06;100.00;60892.56;5881759;23;20006;-91
2022/09/18 07:36:25;;;;;;;1.10;0.53;;;;;;;-145.06;100.00;60892.56;5881836;23;20011;-93
2022/09/18 07:39:04;;;;;;;0.70;0.50;;;;;;;-145.06;100.00;60892.56;5881236;23;20382;-93
2022/09/18 07:41:43;;;;;;;1.15;0.47;;;;;;;-145.06;100.00;60892.56;5882531;23;20010;-92
2022/09/18 07:44:22;;;;;;;0.30;0.30;;;;;;;-145.06;100.00;60892.56;5882147;23;20006;-92
2022/09/18 07:47:05;;;;;;;0.40;0.30;;;;;;;-145.06;100.00;60892.56;5882329;23;20231;-93
2022/09/18 07:50:00;;;;;;;;;;;;;;;;;;;;;
2022/09/18 07:52:39;;;;;;;1.02;0.40;;;;;;;-145.06;100.00;60892.56;5893260;23;20040;-92
2022/09/18 07:55:20;;;;;;;1.80;0.43;;;;;;;-145.06;100.00;60892.56;5894274;23;20006;-91
2022/09/18 07:58:01;;;;;;;0.47;0.35;;;;;;;-145.06;100.00;60892.56;5883962;23;20234;-92
2022/09/18 08:00:40;;;;;;;1.83;0.40;;;;;;;-145.06;100.00;60892.56;5883146;23;20006;-93
2022/09/18 08:03:20;;;;;;;1.13;0.53;;;;;;;-145.06;100.00;60892.56;5884698;23;20033;-91
2022/09/18 08:05:59;;;;;;;1.48;0.68;;;;;;;-145.06;100.00;60892.56;5884357;23;20003;-91
2022/09/18 08:08:38;;;;;;;0.93;0.50;;;;;;;-145.06;100.00;60892.56;5884517;23;20006;-91
2022/09/18 08:11:17;;;;;;;0.73;0.40;;;;;;;-145.06;100.00;60892.56;5884006;23;20311;-93
2022/09/18 08:13:56;;;;;;;1.20;0.53;;;;;;;-145.06;100.00;60892.56;5881738;23;20014;-90
2022/09/18 08:16:35;;;;;;;1.17;0.80;;;;;;;-145.06;100.00;60892.56;5880883;23;20034;-92
2022/09/18 08:19:14;;;;;;;0.50;0.40;;;;;;;-145.06;100.00;60892.56;5881632;23;20015;-91
2022/09/18 11:31:17;;;;;;;0.88;0.70;;;;;;;-145.06;100.00;60892.56;5900106;23;20109;-92
2022/09/18 11:34:13;;;;;;;1.55;1.00;;;;;;;-145.06;100.00;60892.56;5902706;23;20018;-91
2022/09/18 11:41:52;;;;;;;;;;;;;;;;;;;;;
2022/09/18 11:45:18;;;;;;;1.58;1.00;;;;;;;-145.06;100.00;60892.56;5923570;23;20013;-92
2022/09/18 11:55:29;;;;;;;1.55;0.93;;;;;;;-145.06;100.00;60892.56;5888036;23;20421;-91
2022/09/18 11:58:15;;;;;;;1.98;1.00;;;;;;;-145.06;100.00;60892.56;5908811;23;20319;-91
2022/09/18 12:01:08;;;;;;;2.42;1.02;;;;;;;-145.06;100.00;60892.56;5909654;23;20009;-92
2022/09/18 12:03:57;;;;;;;1.50;0.93;;;;;;;-145.06;100.00;60892.56;5909490;23;20302;-90
2022/09/18 12:06:57;;;;;;;1.58;0.93;;;;;;;-145.06;100.00;60892.56;5909507;23;19998;-92
2022/09/18 12:10:01;;;;;;;1.95;0.93;;;;;;;-145.06;100.00;60892.56;5910036;23;20002;-92
2022/09/18 12:12:40;;;;;;;2.17;1.00;;;;;;;-145.06;100.00;60892.56;5912064;23;20161;-91
2022/09/18 12:15:54;;;;;;;1.27;0.80;;;;;;;-145.06;100.00;60892.56;5915805;23;20010;-90
2022/09/18 12:18:46;;;;;;;1.90;1.00;;;;;;;-145.06;100.00;60892.56;5915441;23;20265;-93
2022/09/18 12:21:39;;;;;;;1.95;1.00;;;;;;;-145.06;100.00;60892.56;5915014;23;20295;-95
2022/09/18 12:24:18;;;;;;;2.60;0.98;;;;;;;-145.06;100.00;60892.56;5911483;23;20010;-91
2022/09/18 12:27:15;;;;;;;1.73;1.00;;;;;;;-145.06;100.00;60892.56;5909949;23;20001;-91
2022/09/18 12:30:19;;;;;;;1.25;0.90;;;;;;;-145.06;100.00;60892.56;5912185;23;20006;-91
2022/09/18 12:33:34;;;;;;;2.55;1.30;;;;;;;-145.06;100.00;60892.56;5910633;23;20311;-91
2022/09/18 12:36:49;;;;;;;2.90;1.08;;;;;;;-145.06;100.00;60892.56;5911193;23;20006;-90
2022/09/18 12:39:44;;;;;;;2.03;0.90;;;;;;;-145.06;100.00;60892.56;5914870;23;20006;-90
2022/09/18 12:43:24;;;;;;;1.38;0.90;;;;;;;-145.06;100.00;60892.56;5913177;23;20002;-92
2022/09/18 12:46:44;;;;;;;2.90;1.20;;;;;;;-145.06;100.00;60892.56;5917610;23;20002;-91
2022/09/18 12:50:55;;;;;;;1.38;0.80;;;;;;;-145.06;100.00;60892.56;5916428;23;20005;-93
2022/09/18 12:53:46;;;;;;;0.70;0.60;;;;;;;-145.06;100.00;60892.56;5885670;23;20010;-93
2022/09/18 12:56:45;;;;;;;0.88;0.73;;;;;;;-145.06;100.00;60892.56;5912593;23;20006;-92
2022/09/18 12:59:51;;;;;;;1.90;0.77;;;;;;;-145.06;100.00;60892.56;5912061;23;20013;-91
2022/09/18 13:02:53;;;;;;;1.60;0.88;;;;;;;-145.06;100.00;60892.56;5912185;23;20029;-91
2022/09/18 13:05:49;;;;;;;1.63;1.00;;;;;;;-145.06;100.00;60892.56;5911720;23;20006;-91
2022/09/18 13:08:40;;;;;;;1.17;0.80;;;;;;;-145.06;100.00;60892.56;5912110;23;20077;-90
2022/09/18 13:11:32;;;;;;;1.13;0.90;;;;;;;-145.06;100.00;60892.56;5912071;23;20291;-92
2022/09/18 13:14:21;;;;;;;0.80;0.80;;;;;;;-145.06;100.00;60892.56;5912517;23;20002;-91
2022/09/18 13:17:15;;;;;;;1.33;0.77;;;;;;;-145.06;100.00;60892.56;5911807;23;20081;-91
2022/09/18 13:20:17;;;;;;;0.90;0.80;;;;;;;-145.06;100.00;60892.56;5911770;23;20445;-91
2022/09/18 13:22:58;;;;;;;1.83;0.90;;;;;;;-145.06;100.00;60892.56;5912104;23;20006;-92
2022/09/18 13:25:39;;;;;;;1.42;1.17;;;;;;;-145.06;100.00;60892.56;5912099;23;20085;-91
2022/09/18 13:28:21;;;;;;;1.20;0.90;;;;;;;-145.06;100.00;60892.56;5954283;23;20449;-91
2022/09/18 13:31:30;;;;;;;1.45;1.00;;;;;;;-145.06;100.00;60892.56;5911564;23;20010;-91
2022/09/18 13:34:16;;;;;;;1.65;1.00;;;;;;;-145.06;100.00;60892.56;5911944;23;20033;-92
2022/09/18 13:37:05;;;;;;;1.45;0.70;;;;;;;-145.06;100.00;60892.56;5911174;23;20500;-92
2022/09/18 13:39:56;;;;;;;1.20;0.80;;;;;;;-145.06;100.00;60892.56;5939304;23;20021;-93
2022/09/18 13:43:02;;;;;;;1.20;0.80;;;;;;;-145.06;100.00;60892.56;5941065;23;20088;-92
2022/09/18 13:45:41;;;;;;;1.08;0.70;;;;;;;-145.06;100.00;60892.56;5938683;23;20002;-90
2022/09/18 13:48:30;;;;;;;1.52;0.93;;;;;;;-145.06;100.00;60892.56;5940341;23;20005;-91
2022/09/18 13:51:23;;;;;;;1.35;0.90;;;;;;;-145.06;100.00;60892.56;5940484;23;20005;-92
2022/09/18 13:54:17;;;;;;;2.33;1.10;;;;;;;-145.06;100.00;60892.56;5940727;23;20002;-91
2022/09/18 13:57:03;;;;;;;2.15;0.80;;;;;;;-145.06;100.00;60892.56;5940090;23;20367;-91
2022/09/18 13:59:44;;;;;;;0.95;0.80;;;;;;;-145.06;100.00;60892.56;5940243;23;20006;-91
2022/09/18 14:02:26;;;;;;;1.10;0.80;;;;;;;-145.06;100.00;60892.56;5940496;23;20001;-91
2022/09/18 14:05:28;;;;;;;2.03;0.80;;;;;;;-145.06;100.00;60892.56;5940393;23;20005;-91
2022/09/18 14:08:23;;;;;;;2.63;0.98;;;;;;;-145.06;100.00;60892.56;5940272;23;20442;-93
2022/09/18 14:11:09;;;;;;;1.20;0.88;;;;;;;-145.06;100.00;60892.56;5940300;23;20001;-92
2022/09/18 14:13:53;;;;;;;1.58;0.68;;;;;;;-145.06;100.00;60892.56;5939979;23;20138;-91
2022/09/18 14:16:39;;;;;;;1.13;0.68;;;;;;;-145.06;100.00;60892.56;5939629;23;20006;-91
2022/09/18 14:19:30;;;;;;;1.30;0.82;;;;;;;-145.06;100.00;60892.56;5939882;23;20010;-91
2022/09/18 14:22:29;;;;;;;0.50;0.50;;;;;;;-145.06;100.00;60892.56;5940814;23;20028;-91
2022/09/18 14:25:31;;;;;;;1.20;0.70;;;;;;;-145.06;100.00;60892.56;5939794;23;20005;-91
2022/09/18 14:28:13;;;;;;;2.58;0.80;;;;;;;-145.06;100.00;60892.56;5939729;23;20005;-93
2022/09/18 14:31:17;;;;;;;0.70;0.60;;;;;;;-145.06;100.00;60892.56;5940155;23;20010;-92
2022/09/18 14:34:04;;;;;;;0.75;0.63;;;;;;;-145.06;100.00;60892.56;5940177;23;20014;-91
2022/09/18 14:36:46;;;;;;;0.95;0.63;;;;;;;-145.06;100.00;60892.56;5940155;23;20001;-93
2022/09/18 14:39:36;;;;;;;0.95;0.50;;;;;;;-145.06;100.00;60892.56;5939671;23;20009;-92
2022/09/18 14:42:18;;;;;;;1.75;0.60;;;;;;;-145.06;100.00;60892.56;5940138;23;20322;-90
2022/09/18 14:45:11;;;;;;;0.77;0.60;;;;;;;-145.06;100.00;60892.56;5939843;23;20001;-91
2022/09/18 14:47:49;;;;;;;0.93;0.57;;;;;;;-145.06;100.00;60892.56;5939633;23;20027;-90
2022/09/18 14:50:36;;;;;;;0.80;0.50;;;;;;;-145.06;100.00;60892.56;5939705;23;20037;-93
2022/09/18 14:53:24;;;;;;;0.50;0.50;;;;;;;-145.06;100.00;60892.56;5939653;23;20245;-91
2022/09/18 14:56:08;;;;;;;1.00;0.55;;;;;;;-145.06;100.00;60892.56;5939344;23;20001;-91
2022/09/18 14:58:49;;;;;;;0.70;0.50;;;;;;;-145.06;100.00;60892.56;5939883;23;20396;-92
2022/09/18 15:01:31;;;;;;;0.63;0.40;;;;;;;-145.06;100.00;60892.56;5939141;23;20032;-91
2022/09/18 15:04:15;;;;;;;1.48;0.50;;;;;;;-145.06;100.00;60892.56;5939240;23;20425;-92
2022/09/18 15:06:55;;;;;;;1.10;0.50;;;;;;;-145.06;100.00;60892.56;5939760;23;20010;-93
2022/09/18 15:09:34;;;;;;;1.00;0.47;;;;;;;-145.06;100.00;60892.56;5939016;23;20005;-92
2022/09/18 15:12:20;;;;;;;0.60;0.50;;;;;;;-145.06;100.00;60892.56;5939485;23;20084;-92
2022/09/18 15:15:02;;;;;;;2.00;0.65;;;;;;;-145.06;100.00;60892.56;5939752;23;20025;-92
2022/09/18 15:17:54;;;;;;;0.75;0.55;;;;;;;-145.06;100.00;60892.56;5939442;23;20001;-93
2022/09/18 15:20:36;;;;;;;0.93;0.50;;;;;;;-145.06;100.00;60892.56;5939667;23;20009;-93
2022/09/18 15:23:28;;;;;;;0.60;0.40;;;;;;;-145.06;100.00;60892.56;5939268;23;20013;-92
2022/09/18 15:26:12;;;;;;;0.50;0.40;;;;;;;-145.06;100.00;60892.56;5939659;23;20025;-91
2022/09/18 15:28:53;;;;;;;2.38;1.00;;;;;;;-145.06;100.00;60892.56;5939566;23;20005;-93
2022/09/18 15:31:33;;;;;;;2.22;1.02;;;;;;;-145.06;100.00;60892.56;5938954;23;20421;-93
2022/09/18 15:34:25;;;;;;;1.70;0.90;;;;;;;-145.06;100.00;60892.56;5939737;23;20006;-91
2022/09/18 15:37:04;;;;;;;1.45;0.93;;;;;;;-145.06;100.00;60892.56;5939181;23;20005;-94
2022/09/18 15:39:46;;;;;;;1.40;0.80;;;;;;;-145.06;100.00;60892.56;5939028;23;20325;-92
2022/09/18 15:42:40;;;;;;;1.13;0.70;;;;;;;-145.06;100.00;60892.56;5939277;23;20013;-93
2022/09/18 15:45:21;;;;;;;1.65;0.80;;;;;;;-145.06;100.00;60892.56;5939006;23;20009;-93
2022/09/18 15:48:39;;;;;;;0.90;0.60;;;;;;;-145.06;100.00;60892.56;5939904;23;20002;-93
2022/09/18 15:51:24;;;;;;;1.20;0.73;;;;;;;-145.06;100.00;60892.56;5939308;23;20005;-92
2022/09/18 15:54:09;;;;;;;0.80;0.52;;;;;;;-145.06;100.00;60892.56;5939564;23;20460;-92
2022/09/18 15:56:51;;;;;;;1.35;0.50;;;;;;;-145.06;100.00;60892.56;5931705;23;20448;-93
2022/09/18 15:59:43;;;;;;;1.67;0.80;;;;;;;-145.06;100.00;60892.56;5940613;23;20096;-95
2022/09/18 16:02:41;;;;;;;1.52;0.60;;;;;;;-145.06;100.00;60892.56;5939735;23;20005;-94
2022/09/18 16:05:39;;;;;;;1.20;0.70;;;;;;;-145.06;100.00;60892.56;5940956;23;20002;-93
2022/09/18 16:12:28;;;;;;;0.65;0.60;;;;;;;-145.06;100.00;60892.56;5852618;23;20007;-94
2022/09/18 17:23:28;;;;;;;0.60;0.50;;;;;;;-145.06;100.00;60892.56;5887850;23;20109;-94
2022/09/18 17:26:27;;;;;;;0.85;0.50;;;;;;;-145.06;100.00;60892.56;5884975;23;20002;-92
2022/09/18 17:29:41;;;;;;;0.55;0.43;;;;;;;-145.06;100.00;60892.56;5883072;23;20010;-93
2022/09/18 17:32:20;;;;;;;0.50;0.50;;;;;;;-145.06;100.00;60892.56;5827714;23;20030;-93
2022/09/18 17:34:59;;;;;;;1.88;0.52;;;;;;;-145.06;100.00;60892.56;5825675;23;20014;-94
2022/09/18 17:37:39;;;;;;;0.60;0.50;;;;;;;-145.06;100.00;60892.56;5880711;23;20018;-93